createdAt,value
2022-12-17T00:00:24.548Z,101679.09
2022-12-17T00:03:20.182Z,101678.34
2022-12-17T00:06:05.489Z,101683.75
2022-12-17T00:08:50.669Z,101686.88
2022-12-17T00:11:36.166Z,101685.75
2022-12-17T00:14:41.067Z,101687.75
2022-12-17T00:17:26.491Z,101689.75
2022-12-17T00:20:11.762Z,101693.13
2022-12-17T00:22:56.724Z,101690.59
2022-12-17T00:25:43.478Z,101693.28
2022-12-17T00:28:30.785Z,101691.22
2022-12-17T00:31:16.539Z,101695.78
2022-12-17T00:34:02.016Z,101694.38
2022-12-17T00:36:47.351Z,101700.09
2022-12-17T00:39:32.740Z,101700.94
2022-12-17T00:42:18.245Z,101700.09
2022-12-17T00:45:03.577Z,101698.41
2022-12-17T00:47:48.841Z,101702.94
2022-12-17T00:50:33.985Z,101700.56
2022-12-17T00:53:19.302Z,101709.78
2022-12-17T00:56:04.662Z,101705.56
2022-12-17T00:58:49.946Z,101711.78
2022-12-17T01:01:35.370Z,101708.56
2022-12-17T01:04:20.469Z,101717.66
2022-12-17T01:07:05.954Z,101713.94
2022-12-17T01:09:51.349Z,101722.03
2022-12-17T01:12:37.282Z,101726.75
2022-12-17T01:15:23.010Z,101724.03
2022-12-17T01:18:08.285Z,101719.09
2022-12-17T01:20:53.706Z,101727.19
2022-12-17T01:23:39.451Z,101728.34
2022-12-17T01:26:24.722Z,101730.03
2022-12-17T01:29:09.810Z,101732.88
2022-12-17T01:31:54.833Z,101731.19
2022-12-17T01:34:40.290Z,101732.03
2022-12-17T01:37:25.596Z,101735.75
2022-12-17T01:40:10.914Z,101731.50
2022-12-17T01:43:02.054Z,101731.88
2022-12-17T01:45:56.737Z,101730.88
2022-12-17T01:48:48.606Z,101733.34
2022-12-17T01:51:35.703Z,101726.72
2022-12-17T01:54:21.871Z,101730.94
2022-12-17T01:57:08.040Z,101730.94
2022-12-17T02:00:03.864Z,101738.06
2022-12-17T02:02:49.925Z,101737.06
2022-12-17T02:05:35.715Z,101738.91
2022-12-17T02:08:35.183Z,101741.72
2022-12-17T02:11:44.880Z,101741.72
2022-12-17T02:14:49.496Z,101755.91
2022-12-17T02:17:39.698Z,101744.28
2022-12-17T02:20:46.343Z,101745.41
2022-12-17T02:23:37.721Z,101743.56
2022-12-17T02:26:32.261Z,101757.88
2022-12-17T02:29:20.275Z,101753.50
2022-12-17T02:32:06.667Z,101753.38
2022-12-17T02:35:01.381Z,101752.50
2022-12-17T02:37:46.843Z,101753.22
2022-12-17T02:40:32.736Z,101759.03
2022-12-17T02:43:17.761Z,101761.56
2022-12-17T02:46:03.655Z,101758.88
2022-12-17T02:48:49.799Z,101762.72
2022-12-17T02:51:35.491Z,101770.66
2022-12-17T02:54:36.671Z,101765.28
2022-12-17T02:57:21.989Z,101770.66
2022-12-17T03:00:07.214Z,101768.66
2022-12-17T03:02:52.801Z,101772.50
2022-12-17T03:05:45.930Z,101776.91
2022-12-17T03:08:31.875Z,101776.91
2022-12-17T03:11:17.088Z,101771.34
2022-12-17T03:14:02.533Z,101768.66
2022-12-17T03:16:47.694Z,101774.94
2022-12-17T03:19:32.892Z,101773.09
2022-12-17T03:22:18.163Z,101785.81
2022-12-17T03:25:03.528Z,101787.53
2022-12-17T03:27:48.752Z,101790.94
2022-12-17T03:30:36.179Z,101792.63
2022-12-17T03:33:22.419Z,101787.25
2022-12-17T03:36:10.924Z,101790.78
2022-12-17T03:38:56.190Z,101788.94
2022-12-17T03:41:41.406Z,101794.88
2022-12-17T03:44:26.875Z,101797.31
2022-12-17T03:47:11.938Z,101807.94
2022-12-17T03:49:57.249Z,101814.03
2022-12-17T03:52:45.744Z,101817.88
2022-12-17T03:55:30.808Z,101806.53
2022-12-17T03:58:16.360Z,101817.47
2022-12-17T04:01:01.475Z,101816.88
2022-12-17T04:03:46.802Z,101820.56
2022-12-17T04:06:32.149Z,101822.44
2022-12-17T04:09:17.523Z,101825.97
2022-12-17T04:12:02.687Z,101824.56
2022-12-17T04:14:48.016Z,101827.81
2022-12-17T04:17:33.390Z,101836.75
2022-12-17T04:20:18.922Z,101827.94
2022-12-17T04:23:14.795Z,101826.25
2022-12-17T04:26:00.374Z,101830.63
2022-12-17T04:28:45.753Z,101834.22
2022-12-17T04:31:30.973Z,101844.97
2022-12-17T04:34:16.403Z,101843.97
2022-12-17T04:37:01.468Z,101844.81
2022-12-17T04:39:46.859Z,101853.75
2022-12-17T04:42:32.406Z,101846.53
2022-12-17T04:45:17.751Z,101850.06
2022-12-17T04:48:02.849Z,101859.16
2022-12-17T04:50:48.117Z,101863.13
2022-12-17T04:53:33.628Z,101856.88
2022-12-17T04:56:19.016Z,101871.03
2022-12-17T04:59:05.969Z,101866.28
2022-12-17T05:01:51.053Z,101870.50
2022-12-17T05:04:36.159Z,101869.34
2022-12-17T05:07:21.549Z,101873.34
2022-12-17T05:10:06.857Z,101875.91
2022-12-17T05:12:52.346Z,101879.28
2022-12-17T05:15:37.443Z,101879.75
2022-12-17T05:18:27.278Z,101882.28
2022-12-17T05:21:12.442Z,101887.53
2022-12-17T05:23:57.704Z,101887.53
2022-12-17T05:26:45.603Z,101895.03
2022-12-17T05:29:30.772Z,101892.91
2022-12-17T05:32:16.389Z,101902.53
2022-12-17T05:35:01.953Z,101911.78
2022-12-17T05:37:47.023Z,101911.38
2022-12-17T05:40:32.083Z,101913.06
2022-12-17T05:43:20.487Z,101918.16
2022-12-17T05:46:06.427Z,101918.00
2022-12-17T05:48:52.697Z,101917.16
2022-12-17T05:51:39.302Z,101926.53
2022-12-17T05:54:25.190Z,101929.22
2022-12-17T05:57:10.878Z,101930.31
2022-12-17T05:59:56.103Z,101934.00
2022-12-17T06:02:41.861Z,101927.50
2022-12-17T06:05:27.558Z,101935.31
2022-12-17T06:08:12.615Z,101938.13
2022-12-17T06:10:58.214Z,101943.38
2022-12-17T06:13:43.405Z,101959.94
2022-12-17T06:16:42.381Z,101948.47
2022-12-17T06:19:27.769Z,101958.94
2022-12-17T06:22:12.931Z,101963.91
2022-12-17T06:24:57.949Z,101964.06
2022-12-17T06:27:43.438Z,101964.91
2022-12-17T06:30:29.057Z,101970.28
2022-12-17T06:33:28.178Z,101968.59
2022-12-17T06:36:21.656Z,101974.69
2022-12-17T06:39:08.024Z,101979.78
2022-12-17T06:41:53.064Z,101979.63
2022-12-17T06:44:48.398Z,101992.25
2022-12-17T06:47:33.873Z,101988.88
2022-12-17T06:50:18.953Z,102003.06
2022-12-17T06:53:06.034Z,102013.97
2022-12-17T06:56:01.747Z,102021.78
2022-12-17T06:58:47.079Z,102021.53
2022-12-17T07:01:32.332Z,102026.47
2022-12-17T07:04:17.514Z,102032.44
2022-12-17T07:07:02.885Z,102021.66
2022-12-17T07:09:48.292Z,102037.69
2022-12-17T07:12:33.484Z,102038.94
2022-12-17T07:15:19.084Z,102046.31
2022-12-17T07:18:18.425Z,102056.69
2022-12-17T07:21:03.837Z,102066.31
2022-12-17T07:23:49.381Z,102068.16
2022-12-17T07:26:34.886Z,102068.94
2022-12-17T07:29:20.787Z,102075.47
2022-12-17T07:32:06.164Z,102067.38
2022-12-17T07:34:51.303Z,102061.28
2022-12-17T07:37:36.895Z,102069.06
2022-12-17T07:40:22.722Z,102071.78
2022-12-17T07:43:08.204Z,102075.78
2022-12-17T07:45:53.455Z,102074.63
2022-12-17T07:48:38.530Z,102072.66
2022-12-17T07:51:23.856Z,102090.50
2022-12-17T07:54:09.182Z,102078.63
2022-12-17T07:56:54.648Z,102081.19
2022-12-17T07:59:40.022Z,102099.06
2022-12-17T08:02:25.810Z,102097.34
2022-12-17T08:05:11.207Z,102100.50
2022-12-17T08:07:59.059Z,102105.03
2022-12-17T08:10:44.578Z,102100.75
2022-12-17T08:13:29.917Z,102102.75
2022-12-17T08:16:15.379Z,102094.81
2022-12-17T08:19:00.694Z,102104.75
2022-12-17T08:21:46.114Z,102113.13
2022-12-17T08:24:31.461Z,102101.34
2022-12-17T08:27:16.677Z,102102.50
2022-12-17T08:30:02.047Z,102102.75
2022-12-17T08:32:47.181Z,102120.63
2022-12-17T08:35:32.566Z,102121.22
2022-12-17T08:38:24.626Z,102121.91
2022-12-17T08:41:10.187Z,102128.16
2022-12-17T08:43:55.486Z,102128.16
2022-12-17T08:46:40.870Z,102126.47
2022-12-17T08:49:26.251Z,102131.00
2022-12-17T08:52:11.644Z,102138.25
2022-12-17T08:54:57.099Z,102134.53
2022-12-17T08:57:42.279Z,102146.19
2022-12-17T09:00:28.130Z,102150.97
2022-12-17T09:03:17.118Z,102152.41
2022-12-17T09:06:02.687Z,102160.66
2022-12-17T09:08:47.933Z,102161.66
2022-12-17T09:11:35.383Z,102162.06
2022-12-17T09:14:20.840Z,102175.25
2022-12-17T09:17:06.424Z,102169.28
2022-12-17T09:19:51.568Z,102180.94
2022-12-17T09:22:37.076Z,102177.38
2022-12-17T09:25:22.074Z,102175.53
2022-12-17T09:28:07.350Z,102185.19
2022-12-17T09:30:52.896Z,102169.16
2022-12-17T09:33:38.394Z,102180.22
2022-12-17T09:36:24.990Z,102187.03
2022-12-17T09:39:10.347Z,102194.41
2022-12-17T09:42:11.723Z,102194.13
2022-12-17T09:45:25.194Z,102193.25
2022-12-17T09:48:32.346Z,102186.59
2022-12-17T09:51:18.581Z,102193.16
2022-12-17T09:54:11.572Z,102201.94
2022-12-17T09:56:59.146Z,102202.78
2022-12-17T09:59:52.246Z,102200.09
2022-12-17T10:02:46.765Z,102202.63
2022-12-17T10:05:42.913Z,102201.78
2022-12-17T10:08:32.340Z,102201.34
2022-12-17T10:11:34.174Z,102206.88
2022-12-17T10:14:21.249Z,102208.31
2022-12-17T10:17:11.643Z,102206.03
2022-12-17T10:19:59.964Z,102209.72
2022-12-17T10:22:49.291Z,102202.63
2022-12-17T10:25:39.548Z,102212.13
2022-12-17T10:28:33.004Z,102204.63
2022-12-17T10:31:20.306Z,102210.72
2022-12-17T10:34:05.750Z,102218.38
2022-12-17T10:36:50.998Z,102212.44
2022-12-17T10:39:42.801Z,102225.06
2022-12-17T10:42:43.835Z,102236.09
2022-12-17T10:45:49.966Z,102232.72
2022-12-17T10:48:49.988Z,102235.00
2022-12-17T10:51:39.589Z,102235.00
2022-12-17T10:54:49.386Z,102240.25
2022-12-17T10:57:49.987Z,102240.38
2022-12-17T11:00:50.987Z,102243.78
2022-12-17T11:03:49.629Z,102240.94
2022-12-17T11:06:42.810Z,102241.53
2022-12-17T11:09:48.120Z,102250.47
2022-12-17T11:12:35.507Z,102238.97
2022-12-17T11:15:36.351Z,102236.38
2022-12-17T11:18:24.960Z,102244.47
2022-12-17T11:21:29.152Z,102243.38
2022-12-17T11:24:22.417Z,102250.59
2022-12-17T11:27:11.910Z,102255.69
2022-12-17T11:29:57.318Z,102251.47
2022-12-17T11:33:00.342Z,102251.16
2022-12-17T11:36:09.462Z,102260.97
2022-12-17T11:38:58.326Z,102264.88
2022-12-17T11:42:10.844Z,102270.53
2022-12-17T11:45:18.549Z,102268.13
2022-12-17T11:48:22.819Z,102272.41
2022-12-17T11:51:27.110Z,102285.63
2022-12-17T11:54:40.814Z,102275.84
2022-12-17T11:57:55.963Z,102272.53
2022-12-17T12:00:42.620Z,102280.50
2022-12-17T12:03:36.785Z,102276.09
2022-12-17T12:06:49.389Z,102289.44
2022-12-17T12:09:46.925Z,102299.72
2022-12-17T12:12:53.980Z,102291.47
2022-12-17T12:15:45.081Z,102293.31
2022-12-17T12:19:01.272Z,102292.88
2022-12-17T12:21:55.421Z,102296.31
2022-12-17T12:25:10.704Z,102293.00
2022-12-17T12:28:38.503Z,102304.09
2022-12-17T12:31:52.055Z,102309.75
2022-12-17T12:34:41.768Z,102311.06
2022-12-17T12:37:33.025Z,102307.66
2022-12-17T12:41:07.004Z,102314.28
2022-12-17T12:43:56.774Z,102311.03
2022-12-17T12:46:53.896Z,102319.13
2022-12-17T12:49:53.831Z,102325.66
2022-12-17T12:52:44.507Z,102316.72
2022-12-17T12:55:30.250Z,102326.38
2022-12-17T12:58:20.720Z,102333.59
2022-12-17T13:01:05.696Z,102337.44
2022-12-17T13:03:52.368Z,102339.13
2022-12-17T13:06:37.606Z,102341.41
2022-12-17T13:09:17.429Z,102340.13
2022-12-17T13:11:53.905Z,102336.16
2022-12-17T13:14:26.721Z,102350.09
2022-12-17T13:17:07.883Z,102352.03
2022-12-17T13:19:57.660Z,102351.06
2022-12-17T13:22:24.837Z,102349.22
2022-12-17T13:24:54.451Z,102359.88
2022-12-17T13:27:33.992Z,102354.88
2022-12-17T13:30:18.739Z,102365.25
2022-12-17T13:33:04.186Z,102366.41
2022-12-17T13:35:57.494Z,102366.66
2022-12-17T13:38:45.647Z,102368.66
2022-12-17T13:41:14.741Z,102356.16
2022-12-17T13:43:54.219Z,102358.13
2022-12-17T13:46:27.052Z,102362.97
2022-12-17T13:48:58.362Z,102359.72
2022-12-17T13:51:31.551Z,102367.19
2022-12-17T13:54:01.178Z,102366.31
2022-12-17T13:56:33.741Z,102370.38
2022-12-17T13:59:09.149Z,102392.25
2022-12-17T14:01:48.478Z,102386.34
2022-12-17T14:04:29.142Z,102387.44
2022-12-17T14:07:14.047Z,102396.50
2022-12-17T14:09:43.491Z,102394.44
2022-12-17T14:12:22.101Z,102401.13
2022-12-17T14:14:55.875Z,102397.34
2022-12-17T14:17:25.579Z,102398.84
2022-12-17T14:20:02.421Z,102398.34
2022-12-17T14:22:36.369Z,102397.13
2022-12-17T14:25:05.157Z,102390.31
2022-12-17T14:27:36.828Z,102405.13
2022-12-17T14:30:21.369Z,102405.69
2022-12-17T14:32:48.648Z,102414.06
2022-12-17T14:35:35.138Z,102407.56
2022-12-17T14:38:01.970Z,102411.50
2022-12-17T14:40:28.604Z,102418.91
2022-12-17T14:42:59.519Z,102421.59
2022-12-17T14:45:27.936Z,102426.00
2022-12-17T14:48:07.175Z,102428.56
2022-12-17T14:50:35.782Z,102421.72
2022-12-17T14:53:24.724Z,102428.53
2022-12-17T14:55:55.888Z,102437.06
2022-12-17T14:58:24.410Z,102437.47
2022-12-17T15:00:58.782Z,102443.84
2022-12-17T15:03:32.053Z,102444.28
2022-12-17T15:06:05.051Z,102453.53
2022-12-17T15:08:44.094Z,102456.47
2022-12-17T15:11:13.400Z,102459.59
2022-12-17T15:13:40.267Z,102463.44
2022-12-17T15:16:07.297Z,102462.72
2022-12-17T15:18:34.603Z,102463.69
2022-12-17T15:21:02.434Z,102479.13
2022-12-17T15:23:29.486Z,102476.88
2022-12-17T15:25:56.124Z,102481.25
2022-12-17T15:28:23.437Z,102483.25
2022-12-17T15:30:50.295Z,102469.16
2022-12-17T15:33:17.181Z,102471.88
2022-12-17T15:35:43.972Z,102473.84
2022-12-17T15:38:12.251Z,102472.41
2022-12-17T15:40:39.373Z,102479.06
2022-12-17T15:43:12.077Z,102484.00
2022-12-17T15:45:42.907Z,102484.41
2022-12-17T15:48:11.479Z,102486.97
2022-12-17T15:50:38.455Z,102497.88
2022-12-17T15:53:05.732Z,102498.72
2022-12-17T15:55:32.494Z,102503.84
2022-12-17T15:57:59.123Z,102495.63
2022-12-17T16:00:25.864Z,102503.31
2022-12-17T16:02:52.764Z,102506.25
2022-12-17T16:05:25.730Z,102508.31
2022-12-17T16:07:52.498Z,102511.13
2022-12-17T16:10:19.457Z,102517.53
2022-12-17T16:12:46.027Z,102519.34
2022-12-17T16:15:13.383Z,102520.94
2022-12-17T16:17:40.115Z,102513.25
2022-12-17T16:20:07.393Z,102524.75
2022-12-17T16:22:34.168Z,102525.59
2022-12-17T16:25:01.010Z,102517.25
2022-12-17T16:27:27.622Z,102524.34
2022-12-17T16:29:54.259Z,102521.63
2022-12-17T16:32:20.847Z,102521.91
2022-12-17T16:34:47.444Z,102519.81
2022-12-17T16:37:14.160Z,102520.94
2022-12-17T16:39:40.715Z,102525.47
2022-12-17T16:42:07.460Z,102521.91
2022-12-17T16:44:34.016Z,102520.50
2022-12-17T16:47:00.713Z,102533.13
2022-12-17T16:49:27.695Z,102536.53
2022-12-17T16:51:55.571Z,102529.59
2022-12-17T16:54:27.354Z,102537.53
2022-12-17T16:56:54.990Z,102540.38
2022-12-17T16:59:23.337Z,102534.25
2022-12-17T17:01:51.574Z,102542.94
2022-12-17T17:04:20.716Z,102541.22
2022-12-17T17:06:53.314Z,102547.47
2022-12-17T17:09:21.265Z,102545.63
2022-12-17T17:11:51.420Z,102538.22
2022-12-17T17:14:18.522Z,102549.59
2022-12-17T17:16:45.124Z,102549.31
2022-12-17T17:19:11.795Z,102539.53
2022-12-17T17:21:43.084Z,102542.22
2022-12-17T17:24:20.820Z,102542.75
2022-12-17T17:26:48.882Z,102548.59
2022-12-17T17:29:15.475Z,102556.41
2022-12-17T17:34:28.878Z,102559.66
2022-12-17T17:36:55.435Z,102557.53
2022-12-17T17:39:22.021Z,102560.22
2022-12-17T17:41:48.660Z,102560.94
2022-12-17T17:44:15.578Z,102574.56
2022-12-17T17:46:42.240Z,102586.31
2022-12-17T17:49:09.456Z,102583.34
2022-12-17T17:52:08.465Z,102585.59
2022-12-17T17:54:25.558Z,102584.88
2022-12-17T17:56:53.265Z,102589.28
2022-12-17T17:59:20.033Z,102598.09
2022-12-17T18:01:49.480Z,102598.38
2022-12-17T18:04:19.226Z,102592.84
2022-12-17T18:07:09.132Z,102593.69
2022-12-17T18:09:35.807Z,102588.56
2022-12-17T18:12:23.199Z,102590.41
2022-12-17T18:15:12.794Z,102593.22
2022-12-17T18:17:36.316Z,102592.13
2022-12-17T18:20:03.476Z,102599.59
2022-12-17T18:22:30.045Z,102605.47
2022-12-17T18:24:56.759Z,102601.72
2022-12-17T18:27:23.304Z,102617.47
2022-12-17T18:29:49.860Z,102618.34
2022-12-17T18:32:16.420Z,102622.00
2022-12-17T18:34:43.062Z,102622.00
2022-12-17T18:37:09.676Z,102615.66
2022-12-17T18:39:36.380Z,102615.75
2022-12-17T18:42:21.480Z,102607.09
2022-12-17T18:44:48.047Z,102625.31
2022-12-17T18:47:14.673Z,102619.94
2022-12-17T18:49:41.287Z,102619.06
2022-12-17T18:52:13.119Z,102629.44
2022-12-17T18:54:41.470Z,102627.88
2022-12-17T18:57:08.074Z,102628.72
2022-12-17T18:59:34.712Z,102634.69
2022-12-17T19:02:01.755Z,102638.38
2022-12-17T19:04:28.430Z,102638.38
2022-12-17T19:06:55.203Z,102637.41
2022-12-17T19:09:28.124Z,102640.72
2022-12-17T19:11:55.329Z,102645.47
2022-12-17T19:14:23.271Z,102646.34
2022-12-17T19:16:51.277Z,102649.03
2022-12-17T19:19:18.335Z,102653.72
2022-12-17T19:21:45.380Z,102660.81
2022-12-17T19:24:14.213Z,102664.50
2022-12-17T19:26:41.081Z,102668.03
2022-12-17T19:29:10.638Z,102659.81
2022-12-17T19:31:37.431Z,102670.38
2022-12-17T19:34:06.010Z,102666.81
2022-12-17T19:36:34.964Z,102668.53
2022-12-17T19:39:04.943Z,102669.03
2022-12-17T19:41:33.070Z,102675.81
2022-12-17T19:44:02.193Z,102672.84
2022-12-17T19:46:31.025Z,102670.41
2022-12-17T19:48:58.109Z,102673.84
2022-12-17T19:51:26.831Z,102663.28
2022-12-17T19:53:54.807Z,102682.03
2022-12-17T19:56:25.964Z,102686.44
2022-12-17T19:58:55.529Z,102684.84
2022-12-17T20:01:28.269Z,102688.28
2022-12-17T20:03:55.855Z,102692.69
2022-12-17T20:06:26.115Z,102695.63
2022-12-17T20:08:52.696Z,102703.34
2022-12-17T20:11:35.678Z,102699.31
2022-12-17T20:14:23.949Z,102702.63
2022-12-17T20:16:56.832Z,102708.72
2022-12-17T20:19:26.018Z,102714.97
2022-12-17T20:21:53.919Z,102721.22
2022-12-17T20:24:24.673Z,102728.44
2022-12-17T20:26:55.610Z,102721.47
2022-12-17T20:29:24.304Z,102734.84
2022-12-17T20:31:52.580Z,102735.31
2022-12-17T20:34:22.592Z,102742.06
2022-12-17T20:36:49.946Z,102738.38
2022-12-17T20:39:17.976Z,102739.88
2022-12-17T20:41:46.270Z,102743.19
2022-12-17T20:44:14.789Z,102738.03
2022-12-17T20:46:42.730Z,102740.72
2022-12-17T20:49:11.470Z,102731.53
2022-12-17T20:51:38.340Z,102726.25
2022-12-17T20:54:05.007Z,102732.91
2022-12-17T20:56:34.004Z,102738.75
2022-12-17T20:59:06.276Z,102731.78
2022-12-17T21:01:35.046Z,102734.34
2022-12-17T21:04:02.794Z,102736.31
2022-12-17T21:06:39.749Z,102734.59
2022-12-17T21:09:07.306Z,102739.00
2022-12-17T21:11:35.910Z,102746.81
2022-12-17T21:14:05.428Z,102744.41
2022-12-17T21:16:32.537Z,102749.78
2022-12-17T21:19:00.865Z,102751.50
2022-12-17T21:21:30.193Z,102748.81
2022-12-17T21:23:57.551Z,102755.31
2022-12-17T21:26:26.616Z,102754.91
2022-12-17T21:28:56.412Z,102753.09
2022-12-17T21:31:29.372Z,102746.09
2022-12-17T21:33:59.520Z,102754.06
2022-12-17T21:36:28.622Z,102758.72
2022-12-17T21:38:55.220Z,102765.69
2022-12-17T21:41:24.540Z,102766.31
2022-12-17T21:43:55.808Z,102770.97
2022-12-17T21:46:23.668Z,102773.06
2022-12-17T21:48:51.885Z,102770.13
2022-12-17T21:51:18.430Z,102771.22
2022-12-17T21:53:45.627Z,102770.34
2022-12-17T21:56:15.171Z,102775.88
2022-12-17T21:58:43.703Z,102774.03
2022-12-17T22:01:17.058Z,102786.69
2022-12-17T22:03:48.188Z,102778.03
2022-12-17T22:06:22.917Z,102790.56
2022-12-17T22:08:52.934Z,102785.44
2022-12-17T22:11:27.388Z,102787.06
2022-12-17T22:14:08.071Z,102791.53
2022-12-17T22:16:40.277Z,102795.75
2022-12-17T22:19:11.775Z,102786.38
2022-12-17T22:21:42.231Z,102792.81
2022-12-17T22:24:14.570Z,102785.59
2022-12-17T22:26:41.411Z,102790.47
2022-12-17T22:29:08.212Z,102791.03
2022-12-17T22:31:53.394Z,102788.63
2022-12-17T22:35:00.243Z,102789.03
2022-12-17T22:40:19.229Z,102798.13
2022-12-17T22:43:56.354Z,102799.44
2022-12-17T22:44:49.498Z,102802.69
2022-12-17T22:45:45.498Z,102806.53
2022-12-17T22:48:13.108Z,102828.19
2022-12-17T22:50:43.301Z,102814.09
2022-12-17T22:53:18.236Z,102815.25
2022-12-17T22:55:45.427Z,102824.06
2022-12-17T22:58:12.098Z,102829.88
2022-12-17T23:00:38.696Z,102818.31
2022-12-17T23:03:05.635Z,102827.75
2022-12-17T23:05:33.189Z,102829.13
2022-12-17T23:08:00.046Z,102837.25
2022-12-17T23:10:27.661Z,102839.66
2022-12-17T23:12:55.460Z,102845.03
2022-12-17T23:15:26.792Z,102852.41
2022-12-17T23:17:55.811Z,102849.06
2022-12-17T23:20:23.463Z,102845.75
2022-12-17T23:22:50.235Z,102851.44
2022-12-17T23:25:17.495Z,102844.88
2022-12-17T23:27:45.689Z,102850.88
2022-12-17T23:30:13.768Z,102855.03
2022-12-17T23:32:40.743Z,102860.44
2022-12-17T23:35:08.218Z,102851.94
2022-12-17T23:37:39.827Z,102854.50
2022-12-17T23:40:10.486Z,102851.13
2022-12-17T23:42:37.623Z,102846.59
2022-12-17T23:45:06.560Z,102855.81
2022-12-17T23:47:33.259Z,102866.22
2022-12-17T23:49:59.999Z,102871.09
2022-12-17T23:52:26.651Z,102865.50
2022-12-17T23:54:53.246Z,102874.94
2022-12-17T23:57:20.136Z,102882.56
2022-12-17T23:59:46.834Z,102882.56
